createdAt,value
2019-01-30T00:04:50.029Z,1.65
2019-01-30T00:09:52.589Z,1.69
2019-01-30T00:14:54.970Z,1.82
2019-01-30T00:19:57.445Z,1.79
2019-01-30T00:24:59.927Z,1.80
2019-01-30T00:30:04.221Z,1.76
2019-01-30T00:35:04.864Z,1.69
2019-01-30T00:40:10.056Z,1.62
2019-01-30T00:45:15.475Z,1.66
2019-01-30T00:50:17.943Z,1.63
2019-01-30T00:55:20.446Z,1.68
2019-01-30T01:00:26.062Z,1.56
2019-01-30T01:05:28.671Z,1.53
2019-01-30T01:10:31.150Z,1.52
2019-01-30T01:15:33.628Z,1.48
2019-01-30T01:20:36.110Z,1.51
2019-01-30T01:25:38.618Z,1.53
2019-01-30T01:30:41.268Z,1.54
2019-01-30T01:35:43.746Z,1.59
2019-01-30T01:40:46.225Z,1.60
2019-01-30T01:45:48.707Z,1.52
2019-01-30T01:50:51.217Z,1.55
2019-01-30T01:55:53.700Z,1.63
2019-01-30T02:00:56.188Z,1.65
2019-01-30T02:05:58.679Z,1.65
2019-01-30T02:11:01.151Z,1.67
2019-01-30T02:16:03.645Z,1.67
2019-01-30T02:21:06.111Z,1.67
2019-01-30T02:26:08.589Z,1.69
2019-01-30T02:31:11.076Z,1.72
2019-01-30T02:36:13.564Z,1.81
2019-01-30T02:41:16.046Z,1.70
2019-01-30T02:46:18.539Z,1.70
2019-01-30T02:51:21.013Z,1.72
2019-01-30T02:56:23.489Z,1.76
2019-01-30T03:01:25.971Z,1.74
2019-01-30T03:06:28.458Z,1.80
2019-01-30T03:11:30.936Z,1.85
2019-01-30T03:16:33.485Z,1.83
2019-01-30T03:21:36.015Z,1.87
2019-01-30T03:26:38.498Z,1.89
2019-01-30T03:31:40.996Z,1.95
2019-01-30T03:36:43.449Z,2.01
2019-01-30T03:41:45.925Z,2.00
2019-01-30T03:46:48.455Z,1.99
2019-01-30T03:51:50.930Z,1.95
2019-01-30T03:56:53.399Z,2.03
2019-01-30T04:01:55.885Z,2.06
2019-01-30T04:06:58.370Z,2.00
2019-01-30T04:12:00.842Z,2.09
2019-01-30T04:17:03.426Z,2.08
2019-01-30T04:22:05.818Z,2.01
2019-01-30T04:27:08.290Z,1.97
2019-01-30T04:32:10.977Z,1.97
2019-01-30T04:37:13.460Z,1.89
2019-01-30T04:42:15.954Z,1.98
2019-01-30T04:47:18.422Z,1.95
2019-01-30T04:52:20.908Z,2.01
2019-01-30T04:57:23.400Z,2.04
2019-01-30T05:02:26.021Z,2.08
2019-01-30T05:07:28.518Z,2.10
2019-01-30T05:12:30.997Z,1.98
2019-01-30T05:17:33.491Z,1.83
2019-01-30T05:22:35.956Z,1.79
2019-01-30T05:27:38.426Z,1.83
2019-01-30T05:32:40.896Z,1.74
2019-01-30T05:37:43.367Z,1.78
2019-01-30T05:42:45.837Z,1.92
2019-01-30T05:47:48.312Z,1.77
2019-01-30T05:52:50.793Z,1.73
2019-01-30T05:57:53.352Z,1.85
2019-01-30T06:02:55.821Z,1.93
2019-01-30T06:07:58.322Z,2.07
2019-01-30T06:13:00.812Z,2.07
2019-01-30T06:18:03.287Z,2.07
2019-01-30T06:23:05.772Z,1.98
2019-01-30T06:28:08.244Z,2.16
2019-01-30T06:33:10.719Z,2.07
2019-01-30T06:38:13.191Z,2.03
2019-01-30T06:43:15.676Z,2.07
2019-01-30T06:48:18.161Z,2.04
2019-01-30T06:53:20.637Z,1.98
2019-01-30T06:58:23.171Z,2.20
2019-01-30T07:03:25.621Z,2.08
2019-01-30T07:08:28.100Z,2.23
2019-01-30T07:13:30.565Z,2.10
2019-01-30T07:18:33.036Z,2.10
2019-01-30T07:23:35.511Z,2.06
2019-01-30T07:28:37.976Z,2.22
2019-01-30T07:33:40.451Z,2.41
2019-01-30T07:38:43.195Z,2.54
2019-01-30T07:43:45.674Z,2.59
2019-01-30T07:48:48.163Z,2.65
2019-01-30T07:53:50.635Z,2.72
2019-01-30T07:58:53.127Z,2.88
2019-01-30T08:03:55.605Z,2.86
2019-01-30T08:08:58.090Z,2.90
2019-01-30T08:14:01.934Z,2.82
2019-01-30T08:19:03.053Z,2.92
2019-01-30T08:24:05.597Z,2.95
2019-01-30T08:29:08.414Z,2.98
2019-01-30T08:34:10.502Z,3.09
2019-01-30T08:39:12.981Z,3.26
2019-01-30T08:44:15.451Z,3.43
2019-01-30T08:49:17.946Z,3.58
2019-01-30T08:54:20.453Z,3.76
2019-01-30T08:59:22.916Z,3.96
2019-01-30T09:04:25.376Z,4.01
2019-01-30T09:09:27.865Z,4.32
2019-01-30T09:14:30.342Z,4.82
2019-01-30T09:19:32.802Z,4.97
2019-01-30T09:24:35.276Z,5.18
2019-01-30T09:29:37.744Z,5.31
2019-01-30T09:34:40.240Z,4.84
2019-01-30T09:39:42.689Z,4.91
2019-01-30T09:44:45.183Z,5.18
2019-01-30T09:49:47.655Z,5.57
2019-01-30T09:54:50.172Z,5.96
2019-01-30T09:59:52.611Z,5.64
2019-01-30T10:04:55.083Z,5.67
2019-01-30T10:09:57.559Z,5.77
2019-01-30T10:15:00.031Z,5.98
2019-01-30T10:20:02.523Z,6.27
2019-01-30T10:25:05.059Z,6.23
2019-01-30T10:30:16.374Z,6.86
2019-01-30T10:35:18.848Z,6.76
2019-01-30T10:40:21.311Z,6.55
2019-01-30T10:45:23.765Z,6.51
2019-01-30T10:50:29.096Z,6.44
2019-01-30T10:55:31.630Z,6.61
2019-01-30T11:00:36.935Z,6.64
2019-01-30T11:05:39.416Z,6.60
2019-01-30T11:10:41.877Z,6.53
2019-01-30T11:15:44.353Z,6.60
2019-01-30T11:20:46.838Z,6.44
2019-01-30T11:25:49.300Z,6.46
2019-01-30T11:30:51.781Z,6.41
2019-01-30T11:35:54.261Z,6.49
2019-01-30T11:40:56.779Z,7.23
2019-01-30T11:45:59.285Z,7.43
2019-01-30T11:51:01.757Z,7.14
2019-01-30T11:56:04.242Z,7.15
2019-01-30T12:01:06.712Z,7.38
2019-01-30T12:06:09.190Z,6.90
2019-01-30T12:11:26.228Z,6.97
2019-01-30T12:16:28.722Z,7.74
2019-01-30T12:21:31.201Z,7.33
2019-01-30T12:26:33.693Z,7.42
2019-01-30T12:31:36.166Z,6.98
2019-01-30T12:36:38.676Z,7.18
2019-01-30T12:41:41.150Z,7.04
2019-01-30T12:46:43.649Z,7.26
2019-01-30T12:51:46.126Z,7.15
2019-01-30T12:56:48.617Z,6.88
2019-01-30T13:01:51.125Z,6.54
2019-01-30T13:06:53.593Z,6.72
2019-01-30T13:11:56.105Z,6.73
2019-01-30T13:16:58.582Z,6.70
2019-01-30T13:22:01.076Z,6.36
2019-01-30T13:27:03.578Z,6.39
2019-01-30T13:32:06.067Z,6.41
2019-01-30T13:37:08.572Z,6.35
2019-01-30T13:42:11.054Z,6.24
2019-01-30T13:47:13.545Z,6.10
2019-01-30T13:52:16.307Z,6.15
2019-01-30T13:57:18.794Z,6.16
2019-01-30T14:02:21.384Z,6.25
2019-01-30T14:07:26.669Z,6.55
2019-01-30T14:12:29.176Z,6.76
2019-01-30T14:17:32.493Z,6.55
2019-01-30T14:22:34.719Z,6.34
2019-01-30T14:27:37.196Z,6.36
2019-01-30T14:32:39.780Z,6.34
2019-01-30T14:37:42.179Z,6.36
2019-01-30T14:42:44.706Z,6.38
2019-01-30T14:47:47.209Z,6.35
2019-01-30T14:52:49.708Z,6.48
2019-01-30T14:57:52.154Z,6.52
2019-01-30T15:02:54.634Z,6.62
2019-01-30T15:07:57.163Z,6.81
2019-01-30T15:12:59.700Z,6.73
2019-01-30T15:18:02.276Z,6.46
2019-01-30T15:23:04.721Z,6.16
2019-01-30T15:28:07.266Z,5.85
2019-01-30T15:33:09.722Z,5.60
2019-01-30T15:38:12.233Z,5.26
2019-01-30T15:43:14.719Z,5.25
2019-01-30T15:48:17.237Z,5.10
2019-01-30T15:53:19.749Z,5.02
2019-01-30T15:58:22.248Z,4.89
2019-01-30T16:03:25.163Z,4.91
2019-01-30T16:08:27.647Z,4.89
2019-01-30T16:13:30.244Z,4.81
2019-01-30T16:18:32.754Z,4.78
2019-01-30T16:23:35.243Z,4.70
2019-01-30T16:28:37.768Z,4.63
2019-01-30T16:33:40.253Z,4.56
2019-01-30T16:38:42.740Z,4.55
2019-01-30T16:43:45.223Z,4.48
2019-01-30T16:48:47.726Z,4.44
2019-01-30T16:53:50.205Z,4.43
2019-01-30T16:58:52.686Z,4.43
2019-01-30T17:03:55.241Z,4.36
2019-01-30T17:08:57.739Z,4.36
2019-01-30T17:14:00.219Z,4.32
2019-01-30T17:19:02.737Z,4.31
2019-01-30T17:24:05.228Z,4.28
2019-01-30T17:29:07.731Z,4.27
2019-01-30T17:34:10.205Z,4.15
2019-01-30T17:39:12.680Z,4.03
2019-01-30T17:44:15.292Z,3.91
2019-01-30T17:49:19.204Z,3.87
2019-01-30T17:54:20.332Z,3.83
2019-01-30T17:59:22.859Z,3.80
2019-01-30T18:04:25.386Z,3.70
2019-01-30T18:09:31.796Z,3.65
2019-01-30T18:14:34.296Z,3.61
2019-01-30T18:19:36.790Z,3.66
2019-01-30T18:24:39.312Z,3.78
2019-01-30T18:29:41.983Z,3.91
2019-01-30T18:34:44.471Z,4.05
2019-01-30T18:39:49.602Z,4.06
2019-01-30T18:44:49.488Z,4.12
2019-01-30T18:49:52.021Z,4.18
2019-01-30T18:54:54.505Z,4.23
2019-01-30T18:59:57.004Z,4.26
2019-01-30T19:04:59.518Z,4.28
2019-01-30T19:10:02.042Z,4.30
2019-01-30T19:15:04.521Z,4.27
2019-01-30T19:20:09.979Z,4.34
2019-01-30T19:25:12.660Z,4.25
2019-01-30T19:30:15.196Z,4.28
2019-01-30T19:35:17.700Z,4.27
2019-01-30T19:40:20.205Z,4.28
2019-01-30T19:45:25.676Z,4.24
2019-01-30T19:50:28.183Z,4.29
2019-01-30T19:55:30.705Z,4.28
2019-01-30T20:00:36.199Z,4.26
2019-01-30T20:05:38.634Z,4.25
2019-01-30T20:10:41.141Z,4.25
2019-01-30T20:15:43.659Z,4.26
2019-01-30T20:20:46.740Z,4.26
2019-01-30T20:25:49.238Z,4.23
2019-01-30T20:30:51.752Z,4.23
2019-01-30T20:35:54.219Z,4.19
2019-01-30T20:40:56.713Z,4.19
2019-01-30T20:45:59.235Z,4.25
2019-01-30T20:51:03.125Z,4.20
2019-01-30T20:56:05.696Z,4.08
2019-01-30T21:01:08.180Z,4.05
2019-01-30T21:06:10.688Z,4.02
2019-01-30T21:11:13.163Z,4.00
2019-01-30T21:16:15.646Z,3.96
2019-01-30T21:21:18.159Z,3.88
2019-01-30T21:26:20.657Z,3.59
2019-01-30T21:31:23.155Z,3.37
2019-01-30T21:36:25.746Z,3.16
2019-01-30T21:41:28.259Z,2.99
2019-01-30T21:46:30.770Z,2.82
2019-01-30T21:51:33.307Z,2.75
2019-01-30T21:56:35.799Z,2.70
2019-01-30T22:01:38.295Z,2.58
2019-01-30T22:06:40.801Z,2.51
2019-01-30T22:11:43.676Z,2.28
2019-01-30T22:16:46.160Z,2.06
2019-01-30T22:21:48.665Z,1.89
2019-01-30T22:26:51.147Z,2.07
2019-01-30T22:31:53.634Z,1.89
2019-01-30T22:36:56.140Z,1.77
2019-01-30T22:41:58.626Z,1.64
2019-01-30T22:47:01.106Z,1.51
2019-01-30T22:52:03.597Z,1.43
2019-01-30T22:57:06.084Z,1.36
2019-01-30T23:02:08.563Z,1.30
2019-01-30T23:07:13.953Z,1.22
2019-01-30T23:12:16.404Z,1.14
2019-01-30T23:17:24.640Z,1.01
2019-01-30T23:22:55.132Z,1.06
2019-01-30T23:28:00.662Z,0.81
2019-01-30T23:33:30.731Z,0.79
2019-01-30T23:38:45.451Z,0.90
2019-01-30T23:44:06.384Z,0.83
2019-01-30T23:49:11.502Z,0.70
2019-01-30T23:54:16.879Z,0.73
2019-01-30T23:59:28.213Z,0.78
